createdAt,value
2023-08-20T00:00:53.789Z,6.43
2023-08-20T00:05:17.990Z,6.30
2023-08-20T00:09:36.841Z,6.82
2023-08-20T00:13:55.135Z,6.67
2023-08-20T00:18:15.281Z,6.82
2023-08-20T00:22:35.527Z,7.25
2023-08-20T00:26:55.430Z,6.82
2023-08-20T00:31:14.955Z,6.50
2023-08-20T00:35:34.551Z,6.82
2023-08-20T00:39:53.901Z,6.78
2023-08-20T00:44:13.658Z,7.30
2023-08-20T00:48:34.012Z,7.20
2023-08-20T00:52:53.064Z,7.32
2023-08-20T00:57:12.804Z,7.63
2023-08-20T01:01:33.753Z,7.28
2023-08-20T01:06:01.117Z,7.30
2023-08-20T01:10:28.536Z,7.72
2023-08-20T01:14:47.701Z,6.97
2023-08-20T01:19:13.485Z,7.30
2023-08-20T01:24:10.246Z,7.07
2023-08-20T01:28:32.954Z,7.47
2023-08-20T01:32:52.886Z,6.95
2023-08-20T01:37:12.065Z,7.35
2023-08-20T01:41:29.691Z,7.90
2023-08-20T01:45:50.370Z,7.40
2023-08-20T01:50:10.416Z,9.25
2023-08-20T01:54:30.114Z,8.60
2023-08-20T01:58:48.025Z,9.10
2023-08-20T02:03:09.094Z,10.13
2023-08-20T02:07:26.901Z,10.07
2023-08-20T02:11:45.080Z,11.07
2023-08-20T02:16:05.197Z,10.40
2023-08-20T02:20:25.726Z,10.48
2023-08-20T02:24:45.480Z,11.70
2023-08-20T02:29:03.722Z,11.63
2023-08-20T02:33:22.653Z,12.30
2023-08-20T02:37:44.093Z,11.18
2023-08-20T02:42:03.770Z,12.17
2023-08-20T02:46:23.340Z,13.32
2023-08-20T02:50:43.003Z,12.90
2023-08-20T02:55:06.068Z,13.20
2023-08-20T02:59:27.579Z,14.10
2023-08-20T03:03:50.821Z,13.95
2023-08-20T03:08:11.753Z,13.47
2023-08-20T03:12:32.994Z,13.23
2023-08-20T03:16:55.030Z,14.05
2023-08-20T03:21:17.963Z,13.45
2023-08-20T03:25:34.964Z,14.03
2023-08-20T03:29:54.643Z,15.13
2023-08-20T03:34:15.411Z,14.68
2023-08-20T03:38:35.290Z,14.93
2023-08-20T03:42:53.379Z,14.57
2023-08-20T03:47:14.260Z,15.73
2023-08-20T03:51:32.493Z,15.30
2023-08-20T03:55:50.986Z,14.90
2023-08-20T04:00:11.292Z,15.70
2023-08-20T04:04:40.382Z,15.80
2023-08-20T04:09:00.163Z,14.27
2023-08-20T04:13:18.289Z,16.67
2023-08-20T04:17:37.962Z,16.20
2023-08-20T04:21:58.718Z,17.53
2023-08-20T04:26:18.397Z,17.08
2023-08-20T04:30:39.272Z,16.83
2023-08-20T04:34:57.952Z,18.03
2023-08-20T04:39:17.227Z,18.20
2023-08-20T04:43:40.007Z,18.83
2023-08-20T04:48:00.088Z,18.38
2023-08-20T04:52:20.251Z,19.37
2023-08-20T04:56:41.662Z,19.00
2023-08-20T05:01:02.430Z,18.65
2023-08-20T05:05:22.529Z,17.37
2023-08-20T05:09:40.555Z,18.65
2023-08-20T05:14:00.002Z,18.00
2023-08-20T05:18:21.256Z,17.63
2023-08-20T05:22:40.790Z,17.38
2023-08-20T05:27:11.268Z,18.30
2023-08-20T05:31:32.966Z,17.75
2023-08-20T05:35:51.665Z,18.27
2023-08-20T05:40:15.322Z,17.92
2023-08-20T05:44:35.587Z,17.58
2023-08-20T05:49:00.477Z,18.03
2023-08-20T05:53:26.457Z,17.20
2023-08-20T05:57:45.375Z,18.13
2023-08-20T06:02:06.979Z,17.03
2023-08-20T06:06:27.569Z,16.80
2023-08-20T06:10:45.630Z,17.05
2023-08-20T06:15:03.736Z,14.95
2023-08-20T06:19:21.795Z,15.77
2023-08-20T06:23:44.503Z,15.13
2023-08-20T06:28:03.954Z,14.77
2023-08-20T06:32:23.126Z,14.80
2023-08-20T06:36:40.127Z,13.63
2023-08-20T06:40:59.686Z,12.82
2023-08-20T06:45:19.332Z,11.47
2023-08-20T06:49:37.364Z,11.23
2023-08-20T06:53:55.885Z,11.90
2023-08-20T06:58:17.422Z,12.07
2023-08-20T07:02:35.907Z,10.27
2023-08-20T07:06:55.896Z,10.88
2023-08-20T07:11:13.732Z,11.02
2023-08-20T07:15:35.420Z,10.67
2023-08-20T07:19:54.857Z,10.30
2023-08-20T07:24:15.242Z,10.07
2023-08-20T07:28:49.148Z,9.73
2023-08-20T07:33:12.136Z,11.18
2023-08-20T07:37:32.943Z,11.23
2023-08-20T07:41:50.936Z,10.13
2023-08-20T07:46:12.236Z,9.17
2023-08-20T07:50:31.400Z,9.00
2023-08-20T07:54:51.252Z,8.00
2023-08-20T07:59:09.277Z,5.83
2023-08-20T08:03:30.914Z,4.97
2023-08-20T08:07:49.791Z,4.80
2023-08-20T08:12:12.453Z,4.23
2023-08-20T08:16:33.114Z,4.47
2023-08-20T08:20:52.012Z,4.38
2023-08-20T08:25:15.292Z,4.45
2023-08-20T08:29:34.117Z,3.70
2023-08-20T08:33:53.755Z,4.82
2023-08-20T08:38:17.002Z,4.47
2023-08-20T08:42:36.530Z,4.40
2023-08-20T08:46:57.972Z,4.40
2023-08-20T08:51:17.502Z,4.50
2023-08-20T08:55:34.824Z,4.80
2023-08-20T08:59:54.175Z,5.53
2023-08-20T09:04:16.134Z,5.70
2023-08-20T09:08:35.180Z,5.40
2023-08-20T09:12:52.942Z,4.73
2023-08-20T09:17:16.465Z,4.93
2023-08-20T09:21:35.665Z,5.10
2023-08-20T09:25:56.146Z,5.00
2023-08-20T09:30:21.925Z,5.35
2023-08-20T09:34:43.989Z,5.40
2023-08-20T09:39:06.443Z,5.17
2023-08-20T09:43:30.122Z,5.20
2023-08-20T09:47:52.354Z,5.18
2023-08-20T09:52:28.242Z,5.43
2023-08-20T09:56:49.490Z,5.23
2023-08-20T10:01:10.282Z,7.85
2023-08-20T10:05:35.474Z,5.22
2023-08-20T10:10:02.432Z,5.10
2023-08-20T10:14:22.678Z,4.95
2023-08-20T10:18:44.487Z,4.90
2023-08-20T10:23:06.490Z,4.70
2023-08-20T10:27:39.813Z,4.72
2023-08-20T10:32:06.006Z,4.90
2023-08-20T10:36:31.469Z,4.28
2023-08-20T10:40:53.628Z,4.10
2023-08-20T10:45:13.830Z,4.20
2023-08-20T10:49:35.402Z,4.40
2023-08-20T10:54:08.815Z,4.73
2023-08-20T10:58:27.808Z,4.60
2023-08-20T11:02:52.101Z,4.30
2023-08-20T11:07:21.299Z,4.07
2023-08-20T11:11:41.070Z,4.47
2023-08-20T11:16:00.189Z,5.22
2023-08-20T11:20:24.558Z,4.65
2023-08-20T11:24:46.541Z,4.30
2023-08-20T11:29:08.596Z,4.40
2023-08-20T11:33:28.408Z,4.57
2023-08-20T11:37:49.781Z,4.60
2023-08-20T11:42:09.891Z,4.20
2023-08-20T11:46:30.515Z,4.70
2023-08-20T11:50:52.017Z,4.57
2023-08-20T11:55:19.018Z,5.43
2023-08-20T11:59:41.421Z,4.90
2023-08-20T12:04:05.962Z,4.70
2023-08-20T12:08:28.170Z,4.63
2023-08-20T12:12:53.720Z,5.38
2023-08-20T12:17:15.986Z,6.18
2023-08-20T12:21:39.826Z,6.03
2023-08-20T12:26:02.609Z,5.70
2023-08-20T12:30:28.882Z,5.40
2023-08-20T12:34:55.020Z,6.33
2023-08-20T12:39:18.861Z,6.45
2023-08-20T12:43:38.234Z,5.97
2023-08-20T12:48:02.796Z,6.07
2023-08-20T12:52:23.490Z,6.00
2023-08-20T12:56:41.342Z,6.22
2023-08-20T13:01:01.633Z,6.32
2023-08-20T13:05:22.715Z,6.80
2023-08-20T13:09:42.865Z,6.30
2023-08-20T13:14:03.422Z,6.25
2023-08-20T13:18:26.466Z,6.63
2023-08-20T13:22:46.304Z,7.78
2023-08-20T13:27:06.831Z,7.00
2023-08-20T13:31:26.277Z,6.75
2023-08-20T13:35:46.326Z,6.33
2023-08-20T13:40:15.248Z,6.70
2023-08-20T13:44:33.734Z,7.30
2023-08-20T13:48:53.467Z,6.90
2023-08-20T13:53:12.889Z,7.43
2023-08-20T13:57:41.243Z,6.68
2023-08-20T14:02:03.733Z,6.83
2023-08-20T14:06:24.252Z,8.50
2023-08-20T14:10:43.513Z,7.25
2023-08-20T14:15:03.950Z,6.78
2023-08-20T14:19:24.190Z,6.77
2023-08-20T14:23:48.926Z,6.85
2023-08-20T14:28:08.401Z,6.78
2023-08-20T14:32:32.025Z,7.00
2023-08-20T14:36:53.011Z,8.07
2023-08-20T14:41:11.752Z,7.20
2023-08-20T14:45:29.480Z,7.13
2023-08-20T14:49:49.330Z,6.90
2023-08-20T14:54:10.582Z,6.75
2023-08-20T14:58:33.365Z,6.55
2023-08-20T15:02:53.480Z,6.70
2023-08-20T15:07:13.727Z,6.30
2023-08-20T15:11:46.383Z,6.95
2023-08-20T15:16:23.777Z,6.30
2023-08-20T15:21:00.289Z,6.60
2023-08-20T15:25:20.824Z,6.43
2023-08-20T15:29:40.383Z,6.60
2023-08-20T15:33:59.605Z,6.60
2023-08-20T15:38:19.606Z,6.30
2023-08-20T15:42:41.007Z,6.57
2023-08-20T15:47:00.360Z,6.27
2023-08-20T15:51:21.411Z,6.32
2023-08-20T15:55:40.511Z,6.05
2023-08-20T16:00:00.851Z,6.70
2023-08-20T16:04:20.323Z,6.22
2023-08-20T16:08:37.801Z,6.85
2023-08-20T16:12:55.926Z,6.17
2023-08-20T16:17:17.146Z,6.32
2023-08-20T16:21:35.251Z,6.38
2023-08-20T16:25:54.082Z,6.85
2023-08-20T16:30:14.568Z,6.60
2023-08-20T16:34:37.953Z,6.70
2023-08-20T16:38:56.631Z,6.40
2023-08-20T16:43:17.054Z,6.90
2023-08-20T16:47:37.696Z,6.28
2023-08-20T16:52:02.747Z,6.30
2023-08-20T16:56:21.093Z,7.20
2023-08-20T17:00:40.554Z,6.85
2023-08-20T17:05:01.992Z,6.97
2023-08-20T17:09:22.774Z,6.28
2023-08-20T17:13:42.459Z,6.50
2023-08-20T17:18:03.181Z,7.05
2023-08-20T17:22:22.693Z,6.60
2023-08-20T17:26:49.909Z,6.70
2023-08-20T17:31:13.044Z,6.28
2023-08-20T17:35:32.880Z,6.97
2023-08-20T17:39:57.235Z,7.87
2023-08-20T17:44:17.877Z,6.97
2023-08-20T17:48:44.285Z,7.05
2023-08-20T17:53:06.926Z,7.28
2023-08-20T17:57:25.914Z,6.37
2023-08-20T18:01:47.112Z,6.90
2023-08-20T18:06:11.893Z,6.32
2023-08-20T18:10:29.301Z,6.80
2023-08-20T18:14:47.370Z,6.32
2023-08-20T18:19:08.009Z,6.63
2023-08-20T18:23:41.255Z,6.37
2023-08-20T18:32:29.978Z,6.18
2023-08-20T18:37:06.009Z,6.65
2023-08-20T18:41:39.185Z,5.90
2023-08-20T18:45:58.645Z,6.20
2023-08-20T18:50:34.529Z,6.30
2023-08-20T18:54:59.129Z,8.30
2023-08-20T18:59:21.274Z,7.22
2023-08-20T19:03:48.235Z,9.40
2023-08-20T19:08:17.757Z,11.23
2023-08-20T19:12:56.138Z,6.90
2023-08-20T19:17:29.287Z,6.55
2023-08-20T19:21:55.038Z,6.13
2023-08-20T19:26:14.811Z,6.17
2023-08-20T19:30:46.474Z,6.55
2023-08-20T19:35:11.031Z,5.75
2023-08-20T19:39:35.812Z,6.63
2023-08-20T19:44:39.713Z,6.50
2023-08-20T19:48:58.888Z,6.30
2023-08-20T19:53:18.156Z,6.63
2023-08-20T19:57:37.952Z,6.30
2023-08-20T20:02:06.183Z,6.10
2023-08-20T20:06:31.840Z,6.20
2023-08-20T20:10:57.484Z,5.93
2023-08-20T20:15:23.899Z,6.30
2023-08-20T20:19:43.882Z,7.93
2023-08-20T20:24:11.924Z,5.97
2023-08-20T20:29:04.360Z,5.50
2023-08-20T20:33:35.884Z,7.22
2023-08-20T20:37:53.860Z,5.60
2023-08-20T20:42:15.633Z,5.82
2023-08-20T20:46:34.826Z,5.55
2023-08-20T20:50:54.168Z,5.30
2023-08-20T20:55:12.789Z,5.07
2023-08-20T20:59:32.619Z,5.43
2023-08-20T21:03:52.333Z,4.82
2023-08-20T21:08:11.796Z,4.67
2023-08-20T21:12:36.041Z,4.65
2023-08-20T21:16:59.074Z,4.75
2023-08-20T21:21:18.884Z,4.33
2023-08-20T21:25:37.537Z,4.68
2023-08-20T21:29:54.989Z,4.60
2023-08-20T21:34:14.315Z,4.65
2023-08-20T21:38:31.217Z,5.10
2023-08-20T21:42:49.732Z,4.97
2023-08-20T21:47:27.858Z,4.63
2023-08-20T21:51:53.867Z,5.20
2023-08-20T21:56:14.762Z,5.03
2023-08-20T22:00:34.292Z,5.00
2023-08-20T22:05:15.431Z,4.60
2023-08-20T22:09:57.119Z,4.22
2023-08-20T22:14:35.132Z,4.60
2023-08-20T22:18:55.389Z,4.95
2023-08-20T22:23:17.314Z,4.53
2023-08-20T22:27:40.396Z,4.55
2023-08-20T22:31:58.338Z,4.55
2023-08-20T22:36:16.406Z,4.80
2023-08-20T22:40:38.405Z,4.20
2023-08-20T22:45:00.035Z,4.45
2023-08-20T22:49:20.062Z,4.20
2023-08-20T22:53:38.009Z,4.30
2023-08-20T22:57:56.859Z,4.22
2023-08-20T23:02:21.221Z,3.97
2023-08-20T23:06:44.567Z,4.43
2023-08-20T23:11:10.565Z,4.30
2023-08-20T23:15:33.069Z,4.22
2023-08-20T23:19:55.045Z,4.50
2023-08-20T23:24:15.115Z,4.32
2023-08-20T23:28:33.194Z,4.32
2023-08-20T23:32:53.065Z,3.97
2023-08-20T23:37:13.929Z,4.20
2023-08-20T23:41:34.623Z,4.15
2023-08-20T23:45:54.870Z,3.92
2023-08-20T23:50:26.351Z,4.00
2023-08-20T23:54:47.497Z,4.03
2023-08-20T23:59:07.287Z,4.10
